Terminal Aerodrome Forecast
Issued by NWS

Home | Current Version | Previous Version | Text Only | Print | Product List | Glossary On
Versions: 1 2 3 4 5 6 7 8 9 10 11 12 13 14 15 16 17 18 19 20 21 22 23 24 25 26 27
000
FTUS41 KPBZ 251906 AAA
TAFDUJ
TAF AMD
KDUJ 251906Z 2519/2618 24012G18KT P6SM VCTS SCT025 BKN035CB
      TEMPO 2519/2520 2SM -TSRA
     FM260000 28008KT P6SM BKN150
     FM260300 28004KT 3SM BR SCT250
     FM260800 30003KT 1 1/2SM BR BKN003
     FM261000 30005KT 4SM BR SCT003
     FM261200 30005KT P6SM SKC=

USA.gov is the U.S. government's official web portal to all federal, state and local government web resources and services.